Time;durP1;ratioP1;P1;durP2;ratioP2;P2;SDS_P1;SDS_P2;PMS_P1;PMS_P2;Temp;Humidity;BMP_temperature;BMP_pressure;BME280_temperature;BME280_humidity;BME280_pressure;Samples;Min_cycle;Max_cycle;Signal;HPM_P1;HPM_P2
2023/08/09 00:01:58;;;;;;;0.10;0.10;;;;;;;17.43;65.00;101438.22;5076817;28;20493;-92
2023/08/09 00:04:24;;;;;;;0.10;0.10;;;;;;;17.51;64.45;101442.13;5079978;28;20035;-92
2023/08/09 00:06:49;;;;;;;0.10;0.10;;;;;;;17.37;64.82;101427.28;5073986;28;20035;-92
2023/08/09 00:09:15;;;;;;;0.10;0.10;;;;;;;17.41;65.10;101436.66;5078154;28;20024;-92
2023/08/09 00:11:40;;;;;;;0.10;0.10;;;;;;;17.31;65.42;101439.00;5092517;28;20035;-92
2023/08/09 00:14:06;;;;;;;0.10;0.10;;;;;;;17.38;65.46;101442.88;5080077;28;20028;-91
2023/08/09 00:16:32;;;;;;;0.10;0.10;;;;;;;17.31;65.22;101428.56;5073776;28;20080;-92
2023/08/09 00:18:57;;;;;;;0.10;0.10;;;;;;;17.34;65.34;101433.56;5079381;28;20111;-92
2023/08/09 00:21:23;;;;;;;0.10;0.10;;;;;;;17.43;65.14;101438.22;5079529;28;20028;-91
2023/08/09 00:23:49;;;;;;;0.10;0.10;;;;;;;17.31;64.99;101412.84;5077029;28;20039;-92
2023/08/09 00:26:14;;;;;;;0.10;0.10;;;;;;;17.16;65.43;101400.75;5079816;28;20498;-92
2023/08/09 00:28:40;;;;;;;0.10;0.10;;;;;;;17.24;65.17;101416.78;5078667;28;20024;-91
2023/08/09 00:33:49;;;;;;;0.10;0.10;;;;;;;17.06;65.06;101407.50;5133724;22;20062;-92
2023/08/09 00:36:18;;;;;;;0.10;0.10;;;;;;;17.13;65.70;101446.25;5073648;28;20047;-91
2023/08/09 00:38:43;;;;;;;0.10;0.10;;;;;;;17.12;66.17;101449.81;5076503;28;20045;-92
2023/08/09 00:41:09;;;;;;;0.10;0.10;;;;;;;17.04;66.04;101451.22;5071912;28;20450;-92
2023/08/09 00:43:34;;;;;;;0.10;0.10;;;;;;;17.08;66.12;101453.53;5073717;28;20034;-92
2023/08/09 00:46:00;;;;;;;0.10;0.10;;;;;;;16.98;65.95;101447.19;5075988;28;20027;-92
2023/08/09 00:48:26;;;;;;;0.10;0.10;;;;;;;16.92;66.54;101443.22;5077574;28;20023;-92
2023/08/09 00:50:51;;;;;;;0.10;0.10;;;;;;;16.99;66.84;101448.88;5081424;28;20039;-92
2023/08/09 00:53:17;;;;;;;0.10;0.10;;;;;;;16.95;66.19;101431.72;5097636;28;20027;-92
2023/08/09 00:55:42;;;;;;;0.10;0.10;;;;;;;17.03;66.57;101460.00;5078921;28;20039;-91
2023/08/09 00:58:08;;;;;;;0.10;0.10;;;;;;;17.02;66.84;101447.88;5077536;28;20024;-91
2023/08/09 01:00:33;;;;;;;0.10;0.10;;;;;;;17.16;65.97;101451.28;5078665;28;20036;-92
2023/08/09 01:02:59;;;;;;;0.10;0.10;;;;;;;17.26;65.24;101469.84;5082328;28;20028;-91
2023/08/09 01:05:32;;;;;;;0.10;0.10;;;;;;;17.30;65.15;101463.47;5084340;28;20031;-92
2023/08/09 01:08:08;;;;;;;0.10;0.10;;;;;;;17.30;65.65;101462.63;5085064;28;20031;-93
2023/08/09 01:10:34;;;;;;;0.10;0.10;;;;;;;17.30;65.77;101468.69;5079630;28;20028;-92
2023/08/09 01:13:03;;;;;;;0.10;0.10;;;;;;;17.20;65.91;101464.97;5074456;28;20036;-92
2023/08/09 01:15:31;;;;;;;0.10;0.10;;;;;;;17.22;65.55;101455.28;5063492;28;20077;-92
2023/08/09 01:17:57;;;;;;;0.10;0.10;;;;;;;17.29;65.23;101469.63;5062550;28;20054;-92
2023/08/09 01:20:23;;;;;;;0.10;0.10;;;;;;;17.20;65.43;101462.38;5062506;28;20020;-92
2023/08/09 01:22:57;;;;;;;0.10;0.10;;;;;;;17.27;65.06;101458.44;5063013;28;20038;-92
2023/08/09 01:25:22;;;;;;;0.10;0.10;;;;;;;17.24;65.74;101456.03;5087334;28;20034;-91
2023/08/09 01:27:48;;;;;;;0.10;0.10;;;;;;;17.15;66.19;101438.31;5077343;28;20067;-91
2023/08/09 01:30:14;;;;;;;0.10;0.10;;;;;;;17.23;66.30;101454.34;5073232;28;20032;-92
2023/08/09 01:32:39;;;;;;;0.10;0.10;;;;;;;17.28;65.71;101447.03;5073223;28;20027;-92
2023/08/09 01:35:08;;;;;;;0.10;0.10;;;;;;;17.31;64.96;101454.69;5067247;28;20583;-92
2023/08/09 01:37:42;;;;;;;0.10;0.10;;;;;;;17.32;65.37;101442.47;5071779;28;20027;-92
2023/08/09 01:40:09;;;;;;;0.10;0.10;;;;;;;17.33;64.81;101444.13;5086303;28;20028;-92
2023/08/09 01:42:39;;;;;;;0.10;0.10;;;;;;;17.40;64.40;101459.34;5068597;28;20122;-92
2023/08/09 01:45:06;;;;;;;0.10;0.10;;;;;;;17.44;64.33;101447.72;5073832;28;20039;-92
2023/08/09 01:47:32;;;;;;;0.10;0.10;;;;;;;17.40;64.23;101445.41;5069060;28;20080;-92
2023/08/09 01:49:58;;;;;;;0.10;0.10;;;;;;;17.49;64.29;101455.28;5066277;28;20520;-92
2023/08/09 01:52:23;;;;;;;0.10;0.10;;;;;;;17.54;63.86;101452.38;5070443;28;20028;-93
2023/08/09 01:54:49;;;;;;;0.10;0.10;;;;;;;17.52;63.21;101446.41;5074914;28;20031;-92
2023/08/09 01:57:17;;;;;;;0.10;0.10;;;;;;;17.50;64.17;101443.88;5075138;28;20015;-93
2023/08/09 01:59:43;;;;;;;0.10;0.10;;;;;;;17.44;63.88;101437.28;5078870;28;20039;-92
2023/08/09 02:02:08;;;;;;;0.10;0.10;;;;;;;17.42;64.53;101451.41;5080229;28;20408;-92
2023/08/09 02:04:34;;;;;;;0.10;0.10;;;;;;;17.31;64.51;101439.00;5077203;28;20032;-92
2023/08/09 02:06:59;;;;;;;0.10;0.10;;;;;;;17.25;64.78;101438.56;5075355;28;20085;-93
2023/08/09 02:09:26;;;;;;;0.10;0.10;;;;;;;17.20;64.82;101457.97;5068936;28;20027;-91
2023/08/09 02:11:53;;;;;;;0.10;0.10;;;;;;;17.23;64.58;101456.97;5066875;28;20032;-92
2023/08/09 02:14:18;;;;;;;0.10;0.10;;;;;;;17.17;64.64;101450.34;5070049;28;20034;-92
2023/08/09 02:16:44;;;;;;;0.10;0.10;;;;;;;17.09;65.34;101449.97;5071095;28;20024;-92
2023/08/09 02:19:09;;;;;;;0.10;0.10;;;;;;;17.09;65.51;101442.13;5069169;28;20070;-92
2023/08/09 02:21:41;;;;;;;0.20;0.20;;;;;;;17.12;65.31;101449.81;5067521;28;20023;-93
2023/08/09 02:24:07;;;;;;;0.10;0.10;;;;;;;17.18;65.22;101456.41;5063381;28;20027;-92
2023/08/09 02:26:33;;;;;;;0.10;0.10;;;;;;;17.12;65.50;101459.41;5080546;28;20126;-91
2023/08/09 02:29:00;;;;;;;0.10;0.10;;;;;;;17.10;65.24;101453.41;5072255;28;20408;-91
2023/08/09 02:31:26;;;;;;;0.10;0.10;;;;;;;17.02;65.45;101443.47;5063927;28;20542;-92
2023/08/09 02:33:52;;;;;;;0.10;0.10;;;;;;;17.04;65.96;101459.06;5062700;28;20047;-92
2023/08/09 02:36:17;;;;;;;0.10;0.10;;;;;;;17.01;65.69;101446.16;5063104;28;20027;-93
2023/08/09 02:38:43;;;;;;;0.10;0.10;;;;;;;16.94;66.05;101442.28;5071799;28;20035;-92
2023/08/09 02:41:09;;;;;;;0.10;0.10;;;;;;;17.01;65.66;101456.63;5078486;28;20027;-92
2023/08/09 02:43:35;;;;;;;0.10;0.10;;;;;;;16.91;66.07;101446.75;5093919;28;20028;-92
2023/08/09 02:46:00;;;;;;;0.10;0.10;;;;;;;16.90;66.14;101454.66;5070310;28;20072;-92
2023/08/09 02:48:26;;;;;;;0.10;0.10;;;;;;;16.89;66.50;101461.69;5066452;28;20455;-92
2023/08/09 02:50:51;;;;;;;0.10;0.10;;;;;;;16.91;66.53;101453.72;5061474;28;20051;-92
2023/08/09 02:53:17;;;;;;;0.10;0.10;;;;;;;16.96;66.00;101458.69;5061218;28;20477;-92
2023/08/09 02:55:43;;;;;;;0.10;0.10;;;;;;;16.84;66.02;101455.91;5061112;28;20039;-91
2023/08/09 02:58:08;;;;;;;0.10;0.10;;;;;;;16.86;66.09;101464.50;5064818;28;20087;-91
2023/08/09 03:00:34;;;;;;;0.10;0.10;;;;;;;16.79;66.39;101460.56;5063927;28;20084;-91
2023/08/09 03:03:00;;;;;;;0.10;0.10;;;;;;;16.71;65.95;101438.44;5062932;28;20038;-92
2023/08/09 03:05:26;;;;;;;0.10;0.10;;;;;;;16.84;66.13;101476.81;5065976;28;20031;-92
2023/08/09 03:07:57;;;;;;;0.10;0.10;;;;;;;16.83;67.15;101469.91;5080089;28;20055;-92
2023/08/09 03:10:22;;;;;;;0.10;0.10;;;;;;;16.94;66.65;101461.41;5115007;28;20051;-88
2023/08/09 03:12:48;;;;;;;0.10;0.10;;;;;;;16.98;66.26;101467.28;5066484;28;20023;-92
2023/08/09 03:15:15;;;;;;;0.10;0.10;;;;;;;17.48;65.13;101482.38;5064367;28;20043;-92
2023/08/09 03:17:41;;;;;;;0.10;0.10;;;;;;;17.74;63.38;101470.25;5065448;28;20035;-92
2023/08/09 03:20:13;;;;;;;0.10;0.10;;;;;;;17.67;63.68;101493.31;5064686;28;20032;-92
2023/08/09 03:22:39;;;;;;;0.20;0.20;;;;;;;17.48;64.19;101485.81;5066166;28;20396;-92
2023/08/09 03:25:04;;;;;;;0.10;0.10;;;;;;;17.29;65.46;101487.09;5064651;28;20024;-92
2023/08/09 03:27:30;;;;;;;0.10;0.10;;;;;;;17.52;64.88;101480.41;5064280;28;20034;-92
2023/08/09 03:29:55;;;;;;;0.10;0.10;;;;;;;18.20;62.06;101498.63;5064508;28;20023;-92
2023/08/09 03:32:21;;;;;;;0.10;0.10;;;;;;;18.14;62.02;101501.66;5064263;28;20032;-92
2023/08/09 03:34:46;;;;;;;0.10;0.10;;;;;;;18.17;62.02;101501.44;5099015;28;20051;-93
2023/08/09 03:37:12;;;;;;;0.10;0.10;;;;;;;18.45;61.13;101500.41;5081755;28;20023;-92
2023/08/09 03:39:37;;;;;;;0.10;0.10;;;;;;;18.39;60.75;101501.69;5064849;28;20031;-92
2023/08/09 03:42:04;;;;;;;0.10;0.10;;;;;;;18.13;61.92;101492.97;5064647;28;20016;-92
2023/08/09 03:44:29;;;;;;;0.10;0.10;;;;;;;17.89;62.31;101498.03;5064649;28;20450;-92
2023/08/09 03:46:56;;;;;;;0.10;0.10;;;;;;;18.14;61.59;101499.88;5080977;28;20028;-91
2023/08/09 03:49:21;;;;;;;0.10;0.10;;;;;;;18.37;61.02;101513.19;5062681;27;20130;-84
2023/08/09 03:51:47;;;;;;;0.10;0.10;;;;;;;18.34;60.89;101501.16;5099417;27;20027;-85
2023/08/09 03:54:12;;;;;;;0.10;0.10;;;;;;;18.20;61.76;101503.88;5082456;27;20039;-86
2023/08/09 03:56:37;;;;;;;0.10;0.10;;;;;;;18.10;63.07;101511.50;5099132;27;20034;-87
2023/08/09 03:59:03;;;;;;;0.10;0.10;;;;;;;18.33;61.69;101502.09;5099464;27;20495;-87
2023/08/09 04:01:28;;;;;;;0.17;0.17;;;;;;;18.98;59.35;101503.78;5098836;27;20027;-86
2023/08/09 04:03:54;;;;;;;0.10;0.10;;;;;;;19.30;58.32;101506.75;5099272;27;20075;-86
2023/08/09 04:06:19;;;;;;;0.10;0.10;;;;;;;19.07;58.87;101510.97;5099390;27;20027;-86
2023/08/09 04:08:46;;;;;;;0.10;0.10;;;;;;;19.01;59.16;101520.13;5116209;27;20034;-85
2023/08/09 04:11:11;;;;;;;0.10;0.10;;;;;;;19.24;58.21;101510.63;5082079;27;20031;-85
2023/08/09 04:13:37;;;;;;;0.10;0.10;;;;;;;19.22;58.10;101509.06;5098704;27;20416;-85
2023/08/09 04:16:03;;;;;;;0.10;0.10;;;;;;;19.11;58.58;101530.81;5098645;27;20400;-86
2023/08/09 04:18:28;;;;;;;0.10;0.10;;;;;;;19.09;58.54;101530.09;5099098;27;20477;-86
2023/08/09 04:20:54;;;;;;;0.20;0.20;;;;;;;18.93;59.04;101527.69;5098924;27;20080;-85
2023/08/09 04:23:20;;;;;;;0.10;0.10;;;;;;;18.67;59.90;101520.78;5099166;27;20031;-90
2023/08/09 04:25:46;;;;;;;0.10;0.10;;;;;;;18.50;60.16;101529.78;5095487;28;20024;-85
2023/08/09 04:28:12;;;;;;;0.10;0.10;;;;;;;18.24;60.73;101515.81;5099359;28;20035;-90
2023/08/09 04:30:37;;;;;;;0.10;0.10;;;;;;;18.24;61.06;101527.13;5069346;27;20027;-93
2023/08/09 04:33:06;;;;;;;0.10;0.10;;;;;;;18.05;62.05;101539.75;5065949;28;20031;-94
2023/08/09 04:35:31;;;;;;;0.10;0.10;;;;;;;18.04;61.84;101535.47;5091387;27;20059;-87
2023/08/09 04:37:57;;;;;;;0.10;0.10;;;;;;;17.95;61.94;101542.13;5068043;27;20058;-93
2023/08/09 04:40:25;;;;;;;0.10;0.10;;;;;;;17.75;61.87;101538.19;5085041;27;20452;-91
2023/08/09 04:42:50;;;;;;;0.10;0.10;;;;;;;17.60;62.93;101540.91;5062981;28;20028;-86
2023/08/09 04:45:16;;;;;;;0.20;0.20;;;;;;;17.15;64.04;101543.72;5078765;28;20542;-88
2023/08/09 04:47:41;;;;;;;0.10;0.10;;;;;;;17.24;64.18;101551.94;5072325;27;20432;-87
2023/08/09 04:50:07;;;;;;;0.10;0.10;;;;;;;17.18;64.61;101542.69;5100953;28;20036;-90
2023/08/09 04:52:33;;;;;;;0.10;0.10;;;;;;;17.23;65.11;101545.03;5099458;27;20034;-89
2023/08/09 04:54:59;;;;;;;0.10;0.10;;;;;;;17.10;64.90;101547.53;5100341;27;20405;-91
2023/08/09 04:57:24;;;;;;;0.10;0.10;;;;;;;17.17;66.42;101557.53;5082512;27;20193;-90
2023/08/09 04:59:50;;;;;;;0.10;0.10;;;;;;;17.28;65.63;101559.47;5098512;27;20031;-92
2023/08/09 05:02:15;;;;;;;0.10;0.10;;;;;;;17.22;64.96;101549.41;5061590;28;20023;-85
2023/08/09 05:04:41;;;;;;;0.20;0.20;;;;;;;17.29;65.08;101558.53;5093042;27;20037;-90
2023/08/09 05:07:06;;;;;;;0.10;0.10;;;;;;;17.34;65.47;101558.28;5081130;27;20508;-90
2023/08/09 05:09:32;;;;;;;0.10;0.10;;;;;;;17.34;66.06;101556.50;5081426;27;20014;-93
2023/08/09 05:11:58;;;;;;;0.10;0.10;;;;;;;17.36;65.30;101561.63;5090336;27;20039;-88
2023/08/09 05:14:25;;;;;;;0.10;0.10;;;;;;;17.39;65.67;101566.66;5069203;28;20038;-91
2023/08/09 05:16:50;;;;;;;0.10;0.10;;;;;;;17.38;66.00;101555.34;5070939;27;20027;-91
2023/08/09 05:19:16;;;;;;;0.10;0.10;;;;;;;17.37;66.22;101555.47;5069861;28;20553;-92
2023/08/09 05:21:41;;;;;;;0.10;0.10;;;;;;;17.52;67.03;101553.66;5096676;28;20131;-86
2023/08/09 05:24:07;;;;;;;0.10;0.10;;;;;;;17.85;65.44;101559.38;5082437;27;20416;-93
2023/08/09 05:26:32;;;;;;;0.10;0.10;;;;;;;17.83;65.37;101553.41;5074447;28;20096;-88
2023/08/09 05:28:58;;;;;;;0.10;0.10;;;;;;;17.89;65.78;101566.09;5090808;28;20035;-90
2023/08/09 05:31:23;;;;;;;0.10;0.10;;;;;;;18.32;65.10;101571.16;5087099;27;21453;-92
2023/08/09 05:33:49;;;;;;;0.10;0.10;;;;;;;18.41;63.38;101572.31;5061748;28;20043;-90
2023/08/09 05:36:14;;;;;;;0.10;0.10;;;;;;;18.13;64.08;101552.34;5084566;27;20031;-90
2023/08/09 05:38:40;;;;;;;0.10;0.10;;;;;;;18.06;65.00;101557.97;5114048;27;20080;-85
2023/08/09 05:41:05;;;;;;;0.20;0.20;;;;;;;18.20;64.97;101566.72;5096600;27;20027;-85
2023/08/09 05:43:31;;;;;;;0.10;0.10;;;;;;;18.27;64.68;101574.06;5100946;27;20027;-91
2023/08/09 05:45:56;;;;;;;0.10;0.10;;;;;;;18.26;65.03;101568.94;5229326;22;20514;-92
2023/08/09 05:48:21;;;;;;;0.10;0.10;;;;;;;18.30;64.98;101566.03;5038170;28;20043;-92
2023/08/09 05:50:47;;;;;;;0.20;0.20;;;;;;;18.47;65.75;101585.81;5069344;28;20029;-89
2023/08/09 05:53:12;;;;;;;0.10;0.10;;;;;;;18.68;63.92;101580.13;5036875;28;20059;-92
2023/08/09 05:55:39;;;;;;;0.10;0.10;;;;;;;18.73;64.23;101589.34;5038603;28;20387;-89
2023/08/09 05:58:05;;;;;;;0.10;0.10;;;;;;;18.63;64.77;101578.63;5058539;28;20032;-87
2023/08/09 06:00:31;;;;;;;0.10;0.10;;;;;;;18.71;64.14;101590.41;5068702;28;20029;-90
2023/08/09 06:02:56;;;;;;;0.20;0.20;;;;;;;18.75;64.60;101594.50;5073774;28;20036;-92
2023/08/09 06:05:28;;;;;;;0.10;0.10;;;;;;;18.77;64.22;101589.97;5039860;28;20032;-84
2023/08/09 06:07:53;;;;;;;0.10;0.10;;;;;;;18.85;63.49;101582.44;5073681;28;20020;-88
2023/08/09 06:10:19;;;;;;;0.10;0.10;;;;;;;18.92;63.56;101588.94;5039443;28;20504;-88
2023/08/09 06:12:45;;;;;;;0.10;0.10;;;;;;;18.91;62.99;101571.53;5033463;28;20037;-85
2023/08/09 06:15:11;;;;;;;0.10;0.10;;;;;;;19.12;62.21;101584.94;5020206;28;20024;-91
2023/08/09 06:17:37;;;;;;;0.10;0.10;;;;;;;19.30;62.54;101590.69;5035525;28;20039;-88
2023/08/09 06:20:04;;;;;;;0.10;0.10;;;;;;;19.36;60.26;101591.06;5053354;28;20036;-86
2023/08/09 06:22:30;;;;;;;0.10;0.10;;;;;;;19.30;61.51;101588.06;5052795;28;20024;-87
2023/08/09 06:24:55;;;;;;;0.20;0.20;;;;;;;19.39;61.50;101588.25;5058167;28;20027;-86
2023/08/09 06:27:21;;;;;;;0.20;0.20;;;;;;;19.82;62.74;101595.72;5049964;28;20039;-90
2023/08/09 06:29:46;;;;;;;0.13;0.13;;;;;;;19.85;59.05;101576.25;5026055;28;20025;-91
2023/08/09 06:32:12;;;;;;;0.17;0.17;;;;;;;19.72;59.39;101586.81;5020748;28;20036;-92
2023/08/09 06:34:37;;;;;;;0.15;0.15;;;;;;;19.67;59.14;101575.84;5038433;28;20028;-91
2023/08/09 06:37:03;;;;;;;0.20;0.20;;;;;;;19.80;59.56;101596.78;5048917;28;20028;-93
2023/08/09 06:39:28;;;;;;;0.10;0.10;;;;;;;19.87;59.61;101587.50;5045845;28;20028;-91
2023/08/09 06:41:54;;;;;;;0.10;0.10;;;;;;;19.88;59.57;101582.16;5032257;28;20036;-91
2023/08/09 06:44:22;;;;;;;0.20;0.20;;;;;;;20.20;58.30;101584.19;5025029;28;20035;-91
2023/08/09 06:46:47;;;;;;;0.10;0.10;;;;;;;20.26;58.49;101573.22;5026581;28;20055;-89
2023/08/09 06:49:12;;;;;;;0.10;0.10;;;;;;;20.26;58.20;101566.19;5039574;28;20031;-92
2023/08/09 06:51:38;;;;;;;0.10;0.10;;;;;;;20.22;56.86;101556.84;5035503;28;20390;-91
2023/08/09 06:54:04;;;;;;;0.10;0.10;;;;;;;20.37;56.96;101581.16;5040083;28;20051;-85
2023/08/09 06:56:29;;;;;;;0.10;0.10;;;;;;;20.33;56.48;101572.63;5072398;28;20024;-92
2023/08/09 06:58:55;;;;;;;0.10;0.10;;;;;;;20.34;56.54;101553.28;5072596;28;20028;-82
2023/08/09 07:01:20;;;;;;;0.20;0.20;;;;;;;20.46;55.45;101563.88;5071908;28;20040;-83
2023/08/09 07:03:46;;;;;;;0.10;0.10;;;;;;;20.45;56.89;101573.56;5054882;28;20065;-82
2023/08/09 07:06:12;;;;;;;0.20;0.20;;;;;;;20.40;56.94;101572.19;5055114;28;20031;-84
2023/08/09 07:08:37;;;;;;;0.10;0.10;;;;;;;20.45;57.07;101573.56;5055085;28;20031;-84
2023/08/09 07:11:03;;;;;;;0.10;0.10;;;;;;;20.55;56.68;101578.94;5055439;28;20469;-86
2023/08/09 07:13:28;;;;;;;0.20;0.20;;;;;;;20.47;56.10;101544.53;5055767;28;20020;-89
2023/08/09 07:15:54;;;;;;;0.10;0.10;;;;;;;20.68;57.41;101578.84;5067249;28;20033;-92
2023/08/09 07:18:20;;;;;;;0.10;0.10;;;;;;;20.52;58.35;101574.75;5071589;28;20480;-91
2023/08/09 07:21:06;;;;;;;0.10;0.10;;;;;;;20.52;58.85;101579.16;5057266;28;20039;-92
2023/08/09 07:23:32;;;;;;;0.10;0.10;;;;;;;20.61;57.58;101566.16;5072672;28;20036;-88
2023/08/09 07:25:58;;;;;;;0.10;0.10;;;;;;;20.51;57.36;101543.31;5072149;28;20090;-87
2023/08/09 07:28:23;;;;;;;0.10;0.10;;;;;;;20.79;57.27;101560.47;5110955;28;20031;-86
2023/08/09 07:30:52;;;;;;;0.10;0.10;;;;;;;20.94;59.51;101554.00;5092248;28;20467;-87
2023/08/09 07:33:20;;;;;;;0.10;0.10;;;;;;;21.36;57.77;101555.09;5040956;28;20028;-87
2023/08/09 07:35:45;;;;;;;0.10;0.10;;;;;;;21.41;54.57;101552.91;5035610;28;20500;-86
2023/08/09 07:38:11;;;;;;;0.10;0.10;;;;;;;21.42;54.99;101554.59;5034763;28;20032;-84
2023/08/09 07:40:37;;;;;;;0.10;0.10;;;;;;;21.52;54.74;101545.94;5071679;28;20036;-87
2023/08/09 07:43:02;;;;;;;0.10;0.10;;;;;;;21.75;55.02;101545.78;5054580;28;20036;-87
2023/08/09 07:45:28;;;;;;;0.10;0.10;;;;;;;21.93;54.79;101545.25;5071702;28;20105;-89
2023/08/09 07:47:54;;;;;;;0.10;0.10;;;;;;;21.96;55.26;101543.19;5038639;28;20063;-89
2023/08/09 07:50:20;;;;;;;0.10;0.10;;;;;;;21.98;54.98;101528.06;5033723;28;20032;-88
2023/08/09 07:52:47;;;;;;;0.10;0.10;;;;;;;22.21;54.52;101555.16;5074505;28;20096;-92
2023/08/09 07:55:12;;;;;;;0.10;0.10;;;;;;;22.34;53.97;101547.09;5058004;28;20040;-88
2023/08/09 07:57:38;;;;;;;0.20;0.20;;;;;;;22.46;51.84;101551.34;5061036;28;20035;-88
2023/08/09 08:00:12;;;;;;;0.10;0.10;;;;;;;22.45;51.08;101554.94;5057462;28;20028;-88
2023/08/09 08:02:39;;;;;;;0.10;0.10;;;;;;;22.42;52.46;101544.66;5075554;28;20024;-89
2023/08/09 08:05:05;;;;;;;0.10;0.10;;;;;;;22.69;53.46;101561.72;5049000;28;20035;-91
2023/08/09 08:07:30;;;;;;;0.10;0.10;;;;;;;22.66;53.25;101554.06;5055134;28;20043;-88
2023/08/09 08:09:56;;;;;;;0.10;0.10;;;;;;;22.77;50.96;101543.44;5093060;28;20027;-91
2023/08/09 08:12:22;;;;;;;0.10;0.10;;;;;;;23.03;50.40;101555.25;5035466;28;20028;-89
2023/08/09 08:14:48;;;;;;;0.10;0.10;;;;;;;23.02;48.91;101543.03;5038941;28;20542;-87
2023/08/09 08:17:13;;;;;;;0.10;0.10;;;;;;;23.10;49.30;101556.38;5061528;28;20031;-88
2023/08/09 08:19:39;;;;;;;0.10;0.10;;;;;;;23.21;48.90;101544.91;5059361;28;20036;-89
2023/08/09 08:22:05;;;;;;;0.10;0.10;;;;;;;23.25;49.13;101551.56;5075121;28;20036;-89
2023/08/09 08:24:31;;;;;;;0.10;0.10;;;;;;;23.44;49.40;101546.34;5059504;28;20056;-91
2023/08/09 08:26:57;;;;;;;0.20;0.20;;;;;;;23.71;48.64;101551.00;5042159;28;20058;-87
2023/08/09 08:29:23;;;;;;;0.10;0.10;;;;;;;23.87;48.41;101549.59;5075750;28;20568;-87
2023/08/09 08:31:48;;;;;;;0.10;0.10;;;;;;;23.96;48.70;101541.66;5058195;28;20024;-89
2023/08/09 08:34:14;;;;;;;0.10;0.10;;;;;;;24.11;47.86;101535.97;5074671;28;20409;-89
2023/08/09 08:36:39;;;;;;;0.10;0.10;;;;;;;24.36;48.84;101539.84;5074795;28;20035;-87
2023/08/09 08:39:14;;;;;;;0.20;0.20;;;;;;;24.52;47.55;101540.09;5074280;28;20035;-88
2023/08/09 08:41:41;;;;;;;0.10;0.10;;;;;;;24.63;45.91;101553.16;5060113;28;20032;-91
2023/08/09 08:44:07;;;;;;;0.20;0.20;;;;;;;24.48;45.85;101528.13;5039059;28;20391;-88
2023/08/09 08:46:33;;;;;;;0.20;0.20;;;;;;;24.53;45.76;101537.31;5022173;28;20478;-91
2023/08/09 08:48:58;;;;;;;0.10;0.10;;;;;;;24.73;46.82;101538.06;5038764;28;20035;-91
2023/08/09 08:51:23;;;;;;;0.20;0.20;;;;;;;24.76;45.80;101524.53;5047987;28;20081;-89
2023/08/09 08:53:49;;;;;;;0.20;0.20;;;;;;;24.84;45.02;101514.06;5037720;28;20060;-90
2023/08/09 08:56:14;;;;;;;0.20;0.20;;;;;;;24.92;44.96;101521.28;5041445;28;20032;-94
2023/08/09 08:58:40;;;;;;;0.10;0.10;;;;;;;25.12;44.11;101525.53;5044095;28;20028;-89
2023/08/09 09:01:06;;;;;;;0.10;0.10;;;;;;;25.14;44.47;101512.97;5058526;28;20051;-91
2023/08/09 09:03:32;;;;;;;0.13;0.13;;;;;;;25.11;44.89;101513.28;5037884;28;20067;-87
2023/08/09 09:05:58;;;;;;;0.15;0.15;;;;;;;25.17;44.90;101498.59;5069275;28;20412;-88
2023/08/09 09:08:24;;;;;;;0.20;0.20;;;;;;;25.10;45.62;101495.72;5061713;28;20032;-87
2023/08/09 09:10:53;;;;;;;0.20;0.20;;;;;;;25.17;45.50;101480.06;5022728;28;20037;-88
2023/08/09 09:13:26;;;;;;;0.20;0.20;;;;;;;25.35;45.68;101499.44;5055694;28;20078;-88
2023/08/09 09:15:54;;;;;;;0.20;0.20;;;;;;;25.38;45.18;101491.22;5055101;28;20058;-87
2023/08/09 09:18:20;;;;;;;0.20;0.20;;;;;;;25.46;45.19;101501.88;5037250;28;20036;-88
2023/08/09 09:20:45;;;;;;;0.17;0.17;;;;;;;25.56;45.00;101496.50;5049054;28;20587;-88
2023/08/09 09:23:24;;;;;;;0.20;0.20;;;;;;;25.46;45.70;101498.41;5078080;28;20027;-92
2023/08/09 09:26:02;;;;;;;0.20;0.20;;;;;;;25.59;43.75;101508.66;5094570;28;20051;-92
2023/08/09 09:28:28;;;;;;;0.10;0.10;;;;;;;25.63;43.90;101492.28;5071089;28;20036;-89
2023/08/09 09:30:59;;;;;;;0.10;0.10;;;;;;;25.77;44.39;101506.03;5057531;28;20028;-88
2023/08/09 09:33:35;;;;;;;0.10;0.10;;;;;;;25.85;43.14;101492.81;5059048;28;20400;-92
2023/08/09 09:36:01;;;;;;;0.20;0.20;;;;;;;26.02;42.52;101506.06;5058979;28;20085;-90
2023/08/09 09:38:27;;;;;;;0.20;0.20;;;;;;;26.00;41.92;101494.78;5038148;28;20516;-90
2023/08/09 09:40:52;;;;;;;0.10;0.10;;;;;;;26.06;41.54;101496.00;5054773;28;20029;-85
2023/08/09 09:43:18;;;;;;;0.10;0.10;;;;;;;26.04;41.03;101474.06;5036629;28;20032;-86
2023/08/09 09:45:44;;;;;;;0.10;0.10;;;;;;;26.24;40.23;101485.31;5064532;28;20101;-88
2023/08/09 09:48:16;;;;;;;0.10;0.10;;;;;;;26.26;38.86;101484.19;5064883;28;20024;-88
2023/08/09 09:50:43;;;;;;;0.20;0.20;;;;;;;26.36;39.57;101454.91;5037400;28;20086;-86
2023/08/09 09:53:13;;;;;;;0.20;0.20;;;;;;;26.77;38.84;101479.00;5053610;28;20055;-86
2023/08/09 09:55:38;;;;;;;0.20;0.20;;;;;;;27.04;37.11;101481.44;5038887;28;20401;-90
2023/08/09 09:58:07;;;;;;;0.20;0.20;;;;;;;27.05;36.07;101477.81;5072643;28;20024;-91
2023/08/09 10:00:33;;;;;;;0.10;0.10;;;;;;;27.08;34.75;101474.81;5078030;28;20126;-89
2023/08/09 10:03:04;;;;;;;0.20;0.20;;;;;;;27.24;35.65;101478.50;5071651;28;20090;-92
2023/08/09 10:05:35;;;;;;;0.20;0.20;;;;;;;27.07;34.75;101457.22;5076298;28;20030;-86
2023/08/09 10:08:00;;;;;;;0.20;0.20;;;;;;;27.13;34.74;101459.19;5099395;28;20116;-87
2023/08/09 10:10:26;;;;;;;0.20;0.20;;;;;;;27.19;34.17;101462.22;5053264;28;20029;-89
2023/08/09 10:12:53;;;;;;;0.20;0.20;;;;;;;27.24;35.72;101446.63;5036871;28;20122;-89
2023/08/09 10:15:23;;;;;;;0.20;0.20;;;;;;;27.42;35.46;101455.25;5037196;28;20036;-91
2023/08/09 10:17:49;;;;;;;0.20;0.20;;;;;;;27.56;35.89;101449.31;5024312;28;20020;-91
2023/08/09 10:20:15;;;;;;;0.20;0.20;;;;;;;27.59;34.34;101438.34;5056715;28;20040;-83
2023/08/09 10:22:40;;;;;;;0.17;0.17;;;;;;;27.81;35.22;101444.81;5076019;28;20156;-90
2023/08/09 10:25:07;;;;;;;0.10;0.10;;;;;;;27.84;35.42;101425.06;5076326;28;20036;-85
2023/08/09 10:27:52;;;;;;;0.20;0.20;;;;;;;27.98;35.47;101443.81;5092833;28;20035;-87
2023/08/09 10:30:19;;;;;;;0.20;0.20;;;;;;;28.06;35.51;101435.00;5110696;28;20501;-88
2023/08/09 10:32:49;;;;;;;0.20;0.20;;;;;;;28.14;34.32;101432.31;5060179;28;20027;-86
2023/08/09 10:35:44;;;;;;;0.10;0.10;;;;;;;28.10;35.93;101427.50;5057828;28;20096;-87
2023/08/09 10:38:13;;;;;;;0.20;0.20;;;;;;;28.07;34.76;101419.88;5100386;28;20050;-89
2023/08/09 10:40:42;;;;;;;0.20;0.20;;;;;;;28.16;35.71;101408.22;5057793;28;20456;-87
2023/08/09 10:43:22;;;;;;;0.20;0.20;;;;;;;28.41;35.49;101417.78;5075174;28;21251;-84
2023/08/09 10:45:48;;;;;;;0.20;0.20;;;;;;;28.40;34.85;101400.16;5075466;28;20074;-86
2023/08/09 10:48:23;;;;;;;0.20;0.20;;;;;;;28.77;34.55;101402.13;5075591;28;20477;-93
2023/08/09 10:51:07;;;;;;;0.20;0.20;;;;;;;28.72;34.79;101404.50;5092223;28;20019;-87
2023/08/09 10:54:00;;;;;;;0.20;0.20;;;;;;;28.64;34.19;101391.25;5111250;28;20048;-83
2023/08/09 10:56:51;;;;;;;0.20;0.20;;;;;;;28.70;35.10;101377.22;5092521;28;20066;-86
2023/08/09 10:59:24;;;;;;;0.20;0.20;;;;;;;28.35;33.97;101354.63;5077894;28;20031;-89
2023/08/09 11:01:50;;;;;;;0.20;0.20;;;;;;;28.40;33.97;101365.56;5076154;28;20512;-85
2023/08/09 11:04:18;;;;;;;0.20;0.20;;;;;;;28.58;34.47;101368.78;5054511;28;20142;-83
2023/08/09 11:06:47;;;;;;;0.20;0.20;;;;;;;28.73;34.24;101365.41;5035954;28;20028;-86
2023/08/09 11:09:16;;;;;;;0.20;0.20;;;;;;;28.73;34.42;101368.91;5063489;28;20519;-88
2023/08/09 11:11:46;;;;;;;0.20;0.20;;;;;;;28.89;34.61;101364.47;5060644;28;20802;-86
2023/08/09 11:14:15;;;;;;;0.20;0.20;;;;;;;29.07;34.42;101359.69;5080254;28;20142;-88
2023/08/09 11:16:41;;;;;;;0.20;0.20;;;;;;;29.14;33.79;101355.31;5071984;28;20032;-87
2023/08/09 11:19:10;;;;;;;0.20;0.20;;;;;;;29.18;34.17;101364.59;5038939;28;20035;-89
2023/08/09 11:21:46;;;;;;;0.20;0.20;;;;;;;29.42;32.71;101336.94;5067828;28;20024;-86
2023/08/09 11:24:12;;;;;;;0.10;0.10;;;;;;;29.58;32.80;101342.09;5055995;28;20097;-87
2023/08/09 11:26:41;;;;;;;0.20;0.20;;;;;;;29.76;33.00;101341.75;5057596;28;20038;-88